Station: Bradshaw

  Atmospheric Gas Attenuation - ITU Rec 676-11   --------------- db/100km ---------------
Date Time Temp RH % AH g/m3 Dew Point Wind Direction Speed kph Gust kph Barometer mB Rainfall Since 9am 24GHz 47GHz 76GHz 122GHz 134GHz 241GHz
11 22:30 32 43 14.52 18.2 7 11 1010.6 0 31.0 29.5 52.2 138.0 145.5 505.4
11 22:20 32.1 45 15.28 18.7 7 9 1010.6 0 32.5 30.6 55.1 145.5 154.8 538.0
11 22:10 32 45 15.2 18.6 7 7 1010.4 0 32.4 30.5 54.8 144.9 154.0 535.0
11 22:00 32 45 15.2 18.6 9 11 1010.4 0 32.4 30.5 54.8 144.9 154.0 535.0
11 21:50 32.5 40 13.87 17.5 9 11 1010.3 0 29.6 28.3 49.5 130.6 136.6 474.4
11 21:40 32.3 44 15.1 18.5 11 13 1010.3 0 32.1 30.3 54.2 143.3 152.1 528.6
11 21:30 32 47 15.87 19.6 7 9 1010.3 0 33.8 31.6 57.4 151.8 162.5 564.8
11 21:20 32 47 15.87 19.6 7 9 1010.2 0 33.8 31.6 57.4 151.8 162.5 564.7
11 21:10 32.2 47 16.04 19.5 11 11 1010.1 0 34.1 31.8 57.9 153.2 164.3 570.9
11 21:00 32.3 46 15.78 19.5 11 13 1010 0 33.5 31.3 56.8 150.2 160.7 558.5
11 20:50 32.3 46 15.78 19.5 11 11 1009.8 0 33.5 31.3 56.8 150.2 160.7 558.4
11 20:40 32.5 46 15.95 19.7 11 11 1009.7 0 33.9 31.5 57.4 151.6 162.4 564.5
11 20:30 32.6 46 16.04 19.5 11 13 1009.6 0 34.1 31.6 57.6 152.3 163.4 567.8
11 20:20 32.6 46 16.04 19.5 11 11 1009.5 0 34.1 31.6 57.6 152.3 163.3 567.8
11 20:10 32.8 45 15.86 19.3 11 13 1009.4 0 33.7 31.2 56.8 150.1 160.6 558.3
11 20:00 33.2 41 14.76 18.5 9 11 1009.4 0 31.4 29.4 52.3 138.2 146.1 507.7
11 19:50 33.8 38 14.12 17.5 9 9 1009.3 0 30.0 28.2 49.6 130.8 137.3 476.9
11 19:40 33.7 38 14.04 17.8 7 7 1009.2 0 29.8 28.2 49.3 130.2 136.5 474.1
11 19:30 33.8 38 14.12 17.9 9 11 1009.1 0 30.0 28.2 49.5 130.8 137.3 476.8
11 19:20 34.1 38 14.34 17.8 9 11 1009 0 30.4 28.5 50.2 132.5 139.4 484.2
11 19:10 34.4 37 14.18 17.6 7 7 1009 0 30.1 28.1 49.4 130.4 136.9 475.7
11 19:00 34.4 37 14.18 17.6 11 13 1008.8 0 30.1 28.1 49.4 130.4 136.9 475.7
11 18:50 34.4 37 14.18 18 11 15 1008.7 0 30.1 28.1 49.4 130.4 136.9 475.6
11 18:40 34.7 37 14.41 17.9 11 11 1008.6 0 30.5 28.4 50.0 132.1 139.1 483.4
11 18:30 35 36 14.24 17.7 11 15 1008.5 0 30.2 28.0 49.2 130.0 136.6 474.5
11 18:20 35.3 33 13.26 17 11 13 1008.4 0 28.1 26.5 45.6 120.3 124.7 433.0
11 18:10 35.5 33 13.4 16.8 9 9 1008.4 0 28.4 26.7 45.9 121.3 126.0 437.6
11 18:00 36.2 31 13.05 16.4 13 15 1008.3 0 27.6 26.0 44.3 117.0 120.9 420.0
11 17:50 36.2 30 12.63 15.9 15 19 1008.3 0 26.8 25.4 42.9 113.2 116.2 403.6
11 17:40 36.9 30 13.09 16.5 15 17 1008.2 0 27.7 25.8 44.1 116.4 120.3 417.9
11 17:30 36.9 28 12.22 15.9 15 22 1008 0 25.9 24.6 41.2 108.6 110.7 384.4
11 17:20 36.8 28 12.16 15.8 15 17 1007.9 0 25.8 24.6 41.0 108.2 110.2 382.6
11 17:10 36.8 28 12.16 15.3 19 19 1007.9 0 25.8 24.6 41.0 108.2 110.2 382.6
11 17:00 36.8 28 12.16 15.8 19 24 1007.8 0 25.8 24.6 41.0 108.2 110.2 382.6
11 16:50 36.5 29 12.4 16.1 11 15 1007.7 0 26.3 25.0 42.0 110.7 113.2 393.1
11 16:40 36 31 12.91 16.2 15 17 1007.7 0 27.4 25.8 44.0 116.0 119.6 415.3
11 16:30 36.9 28 12.22 15.4 15 19 1007.6 0 25.9 24.6 41.2 108.5 110.7 384.3
11 16:20 36.9 26 11.35 14.8 17 19 1007.6 0 24.1 23.5 38.3 101.0 101.4 351.7
11 16:10 37.1 27 11.9 15 15 17 1007.6 0 25.2 24.1 40.0 105.5 107.0 371.3
11 16:00 37.4 25 11.19 14.6 13 20 1007.7 0 23.8 23.1 37.6 99.0 99.1 343.7
11 15:50 37.7 28 12.73 16.1 11 11 1007.7 0 26.9 25.1 42.5 112.0 115.1 399.9
11 15:40 38.7 22 10.52 13.8 11 13 1007.6 0 22.4 22.0 34.9 92.0 90.7 314.5
11 15:30 39 23 11.17 14.1 7 13 1007.6 0 23.7 22.7 36.8 97.0 97.0 336.5
11 15:20 38.2 23 10.73 13.4 9 13 1007.7 0 22.8 22.3 35.8 94.3 93.4 323.9
11 15:10 37.9 23 10.56 13.2 6 11 1007.9 0 22.5 22.2 35.4 93.2 92.1 319.0
11 15:00 38.3 24 11.25 14.2 6 11 1008.1 0 23.9 23.0 37.4 98.5 98.7 342.3
11 14:50 37.5 24 10.8 13.5 7 9 1008.1 0 23.0 22.6 36.3 95.7 95.0 329.3
11 14:40 38.4 23 10.84 13.6 19 20 1008.2 0 23.0 22.5 36.1 95.0 94.4 327.2
11 14:30 39.3 24 11.83 15 11 20 1008.3 0 25.0 23.5 38.8 102.2 103.5 359.3
11 14:20 38.3 25 11.72 14.8 15 17 1008.4 0 24.8 23.6 38.9 102.5 103.6 359.6
11 14:10 38.6 24 11.42 14.4 13 15 1008.5 0 24.2 23.2 37.8 99.6 100.1 347.4
11 14:00 38 24 11.08 14.5 7 15 1008.6 0 23.5 22.9 37.0 97.5 97.3 337.5
11 13:50 37.6 28 12.67 16.5 7 9 1008.7 0 26.8 25.1 42.3 111.7 114.7 398.4
11 13:40 37.6 30 13.57 17.1 9 11 1008.8 0 28.6 26.3 45.4 119.8 124.7 433.2
11 13:30 37.4 29 12.98 16.4 7 13 1008.9 0 27.4 25.5 43.5 114.8 118.4 411.4
11 13:20 38 29 13.39 16.9 6 7 1009.1 0 28.2 25.9 44.6 117.6 122.1 424.2
11 13:10 37.1 30 13.23 17.1 7 9 1009.2 0 28.0 26.0 44.5 117.5 121.7 422.7
11 13:00 37.2 30 13.29 17.2 7 15 1009.4 0 28.1 26.0 44.7 117.9 122.2 424.6
11 12:50 36.8 32 13.89 17.4 0 4 1009.7 0 29.3 27.0 47.0 124.0 129.6 450.5
11 12:40 36.7 30 12.96 16.8 11 13 1009.9 0 27.4 25.7 43.8 115.7 119.3 414.4
11 12:30 36.3 32 13.54 17 7 15 1010.1 0 28.6 26.7 46.1 121.6 126.5 439.4
11 12:20 36.3 32 13.54 17 6 7 1010.3 0 28.6 26.7 46.1 121.6 126.5 439.5
11 12:10 36 34 14.16 17.7 11 13 1010.5 0 29.9 27.7 48.4 127.9 134.1 466.1
11 12:00 36.2 33 13.89 17.4 13 22 1010.7 0 29.4 27.2 47.4 125.0 130.7 454.2
11 11:50 36.1 34 14.24 18.2 9 13 1010.8 0 30.1 27.8 48.7 128.5 134.9 468.9
11 11:40 36 34 14.16 18.1 11 13 1011 0 29.9 27.7 48.4 127.9 134.2 466.3
11 11:30 35.5 35 14.21 17.7 11 17 1011 0 30.1 27.9 48.9 129.2 135.6 471.2
11 11:20 35.8 36 14.84 18.8 9 13 1011.2 0 31.3 28.7 51.0 134.8 142.5 495.5
11 11:10 34.6 38 14.72 18.6 7 9 1011.3 0 31.2 28.9 51.3 135.6 143.3 497.9
11 11:00 34.4 42 16.1 20 4 9 1011.4 0 34.0 31.1 56.7 149.8 160.6 558.4
11 10:50 34.3 44 16.78 20.3 7 9 1011.4 0 35.4 32.2 59.4 157.0 169.4 589.2
11 10:40 34.4 44 16.87 20.4 7 9 1011.5 0 35.6 32.3 59.6 157.7 170.4 592.5
11 10:30 33.5 44 16.09 19.6 6 9 1011.6 0 34.1 31.4 57.3 151.4 162.4 564.4
11 10:20 33.1 43 15.39 19.2 0 0 1011.6 0 32.7 30.5 54.9 145.0 154.3 536.4
11 10:10 33.3 42 15.2 19 0 0 1011.6 0 32.3 30.1 54.0 142.7 151.6 526.8
11 10:00 32.5 46 15.95 19.4 4 9 1011.6 0 33.9 31.6 57.5 151.8 162.7 565.3
11 09:50 32.2 48 16.38 19.8 6 7 1011.6 0 34.8 32.4 59.4 156.9 168.8 586.9
11 09:40 31.8 47 15.7 19.4 7 9 1011.6 0 33.4 31.4 57.0 150.6 160.9 559.1
11 09:30 32.2 50 17.07 20.5 4 7 1011.5 0 36.2 33.5 62.1 164.3 177.9 618.4
11 09:20 32 48 16.21 19.9 0 0 1011.5 0 34.5 32.2 58.8 155.5 167.0 580.6
11 09:10 31.2 52 16.83 20.2 0 0 1011.5 0 35.8 33.5 61.9 163.8 177.0 615.2
11 09:00 30.6 56 17.54 20.8 6 7 1011.5 0 37.3 34.9 65.4 172.9 188.0 653.5
11 08:50 30.2 62 19.01 22.1 7 9 1011.4 0 40.5 37.6 72.0 190.6 209.6 728.8
11 08:40 29.7 65 19.4 22.4 9 11 1011.4 0 41.3 38.5 74.2 196.5 216.7 753.3
11 08:30 29.2 66 19.17 22.2 9 15 1011.4 0 40.9 38.3 73.7 195.0 214.8 746.5
11 08:20 29 64 18.39 21.7 7 7 1011.4 0 39.3 37.0 70.4 186.3 204.0 709.1
11 08:10 28.7 68 19.22 22.2 7 9 1011.3 0 41.0 38.6 74.4 196.9 216.9 753.9
11 08:00 28.4 69 19.18 22.2 7 11 1011.3 0 41.0 38.7 74.5 197.1 217.2 754.8
11 07:50 27.9 73 19.74 22.6 4 6 1011.2 0 42.2 40.0 77.6 205.3 227.0 788.9
11 07:40 27.4 75 19.73 22.6 9 11 1011 0 42.3 40.2 78.0 206.5 228.3 793.4
11 07:30 26.6 77 19.38 22.2 7 9 1010.9 0 41.6 39.9 77.2 204.3 225.4 783.2
11 07:20 25.8 79 19.02 21.9 7 9 1010.8 0 40.9 39.6 76.3 201.9 222.3 772.3
11 07:10 25.6 80 19.05 21.9 0 0 1010.7 0 41.0 39.7 76.7 202.8 223.4 775.9
11 07:00 25.6 81 19.28 22.1 4 7 1010.7 0 41.5 40.2 77.7 205.7 226.9 788.2
11 06:50 25.4 80 18.83 21.7 0 0 1010.6 0 40.6 39.4 75.8 200.6 220.6 766.2
11 06:40 25.7 80 19.15 22 0 0 1010.6 0 41.2 39.9 77.0 203.8 224.6 780.1
11 06:30 25.7 79 18.91 21.8 0 0 1010.4 0 40.7 39.4 75.9 200.8 220.9 767.3
11 06:20 26 78 18.99 21.9 0 0 1010.4 0 40.9 39.4 76.0 201.0 221.2 768.4
11 06:10 26.3 78 19.31 22.2 9 9 1010.3 0 41.5 39.9 77.1 204.1 225.2 782.3
11 06:00 26.3 77 19.06 21.9 11 11 1010.2 0 41.0 39.4 76.0 201.0 221.3 769.0

Last Refresh: 11-Apr-2021 22:38:51

Bureau of Meteorology